createdAt,value
2023-05-19T00:03:33.878Z,98836.53
2023-05-19T00:06:02.846Z,98826.16
2023-05-19T00:08:34.162Z,98828.34
2023-05-19T00:11:01.972Z,98822.19
2023-05-19T00:13:29.538Z,98831.13
2023-05-19T00:15:56.816Z,98821.56
2023-05-19T00:18:23.699Z,98821.56
2023-05-19T00:20:52.377Z,98821.75
2023-05-19T00:23:19.183Z,98809.78
2023-05-19T00:25:45.956Z,98803.72
2023-05-19T00:28:12.796Z,98802.78
2023-05-19T00:30:39.543Z,98810.34
2023-05-19T00:33:06.404Z,98807.44
2023-05-19T00:35:33.578Z,98811.25
2023-05-19T00:38:00.544Z,98805.59
2023-05-19T00:40:31.656Z,98811.31
2023-05-19T00:42:58.642Z,98807.41
2023-05-19T00:45:25.597Z,98806.00
2023-05-19T00:47:52.450Z,98807.41
2023-05-19T00:50:19.636Z,98811.38
2023-05-19T00:52:46.632Z,98802.88
2023-05-19T00:55:14.186Z,98797.78
2023-05-19T00:57:43.055Z,98799.41
2023-05-19T01:00:11.421Z,98796.31
2023-05-19T01:02:40.048Z,98795.53
2023-05-19T01:05:08.631Z,98792.06
2023-05-19T01:07:36.843Z,98790.56
2023-05-19T01:10:04.604Z,98793.78
2023-05-19T01:12:31.601Z,98791.75
2023-05-19T01:14:59.228Z,98799.09
2023-05-19T01:17:28.779Z,98794.22
2023-05-19T01:20:20.235Z,98791.16
2023-05-19T01:22:57.322Z,98796.28
2023-05-19T01:26:09.487Z,98790.50
2023-05-19T01:29:14.131Z,98788.16
2023-05-19T01:31:43.451Z,98785.44
2023-05-19T01:34:13.206Z,98791.44
2023-05-19T01:36:41.925Z,98787.34
2023-05-19T01:39:09.141Z,98789.88
2023-05-19T01:41:38.172Z,98788.19
2023-05-19T01:44:05.590Z,98790.00
2023-05-19T01:46:32.529Z,98791.84
2023-05-19T01:48:59.938Z,98799.34
2023-05-19T01:51:27.967Z,98797.94
2023-05-19T01:53:56.598Z,98794.63
2023-05-19T01:56:42.685Z,98797.22
2023-05-19T01:59:24.264Z,98796.44
2023-05-19T02:01:56.852Z,98788.69
2023-05-19T02:04:29.364Z,98793.06
2023-05-19T02:07:11.986Z,98784.53
2023-05-19T02:10:05.181Z,98790.41
2023-05-19T02:12:35.997Z,98790.13
2023-05-19T02:15:11.722Z,98788.31
2023-05-19T02:17:42.382Z,98788.41
2023-05-19T02:20:10.675Z,98793.59
2023-05-19T02:22:37.667Z,98783.84
2023-05-19T02:25:05.287Z,98784.34
2023-05-19T02:27:34.408Z,98786.19
2023-05-19T02:30:03.793Z,98786.22
2023-05-19T02:32:32.071Z,98782.25
2023-05-19T02:34:59.133Z,98775.38
2023-05-19T02:37:28.946Z,98770.69
2023-05-19T02:39:57.300Z,98775.69
2023-05-19T02:42:24.224Z,98775.66
2023-05-19T02:44:51.713Z,98765.63
2023-05-19T02:47:18.568Z,98765.88
2023-05-19T02:49:45.552Z,98765.66
2023-05-19T02:52:12.303Z,98763.06
2023-05-19T02:54:40.001Z,98761.41
2023-05-19T02:57:07.076Z,98765.63
2023-05-19T02:59:34.006Z,98764.19
2023-05-19T03:02:02.767Z,98766.94
2023-05-19T03:04:30.218Z,98757.38
2023-05-19T03:07:00.509Z,98758.34
2023-05-19T03:09:28.985Z,98760.28
2023-05-19T03:11:56.065Z,98756.53
2023-05-19T03:14:24.601Z,98755.09
2023-05-19T03:16:52.427Z,98756.56
2023-05-19T03:19:19.405Z,98757.75
2023-05-19T03:21:47.339Z,98757.88
2023-05-19T03:24:14.164Z,98762.72
2023-05-19T03:26:42.281Z,98761.03
2023-05-19T03:29:09.753Z,98759.81
2023-05-19T03:31:37.624Z,98762.22
2023-05-19T03:34:05.307Z,98766.47
2023-05-19T03:36:33.130Z,98762.47
2023-05-19T03:39:00.857Z,98760.63
2023-05-19T03:41:28.015Z,98764.25
2023-05-19T03:43:56.956Z,98764.25
2023-05-19T03:46:24.689Z,98762.28
2023-05-19T03:48:52.136Z,98766.84
2023-05-19T03:51:30.161Z,98770.16
2023-05-19T03:54:04.891Z,98764.13
2023-05-19T03:56:34.448Z,98762.81
2023-05-19T03:59:02.098Z,98759.19
2023-05-19T04:01:29.020Z,98753.50
2023-05-19T04:03:57.779Z,98757.75
2023-05-19T04:06:24.803Z,98758.94
2023-05-19T04:08:51.691Z,98757.97
2023-05-19T04:11:20.132Z,98763.38
2023-05-19T04:13:47.033Z,98758.16
2023-05-19T04:16:14.450Z,98760.34
2023-05-19T04:18:42.580Z,98762.38
2023-05-19T04:21:12.299Z,98764.16
2023-05-19T04:23:39.299Z,98764.00
2023-05-19T04:26:06.937Z,98770.53
2023-05-19T04:28:36.765Z,98769.81
2023-05-19T04:31:04.047Z,98773.75
2023-05-19T04:33:31.095Z,98760.34
2023-05-19T04:36:00.082Z,98762.06
2023-05-19T04:38:30.057Z,98763.22
2023-05-19T04:41:00.605Z,98763.47
2023-05-19T04:43:28.404Z,98762.78
2023-05-19T04:45:55.905Z,98763.38
2023-05-19T04:48:23.149Z,98757.63
2023-05-19T04:50:51.977Z,98765.56
2023-05-19T04:53:19.360Z,98770.63
2023-05-19T04:55:46.103Z,98773.69
2023-05-19T04:58:13.635Z,98776.69
2023-05-19T05:00:40.537Z,98779.84
2023-05-19T05:03:09.042Z,98773.88
2023-05-19T05:05:36.408Z,98764.41
2023-05-19T05:08:03.537Z,98768.03
2023-05-19T05:10:35.733Z,98759.94
2023-05-19T05:13:04.248Z,98766.38
2023-05-19T05:15:31.979Z,98764.69
2023-05-19T05:18:01.508Z,98764.28
2023-05-19T05:20:28.867Z,98767.63
2023-05-19T05:22:58.080Z,98762.06
2023-05-19T05:25:26.293Z,98759.72
2023-05-19T05:27:53.319Z,98756.59
2023-05-19T05:30:20.351Z,98759.13
2023-05-19T05:32:47.451Z,98758.47
2023-05-19T05:35:38.744Z,98760.63
2023-05-19T05:38:08.274Z,98755.66
2023-05-19T05:40:37.115Z,98754.84
2023-05-19T05:43:05.818Z,98744.41
2023-05-19T05:45:37.027Z,98749.88
2023-05-19T05:48:04.624Z,98755.38
2023-05-19T05:50:32.136Z,98750.00
2023-05-19T05:53:01.489Z,98752.78
2023-05-19T05:55:28.719Z,98744.72
2023-05-19T05:57:56.975Z,98746.19
2023-05-19T06:00:23.969Z,98750.94
2023-05-19T06:02:53.563Z,98760.59
2023-05-19T06:05:20.907Z,98751.25
2023-05-19T06:07:48.696Z,98748.31
2023-05-19T06:10:23.572Z,98747.94
2023-05-19T06:12:50.416Z,98757.88
2023-05-19T06:15:17.431Z,98764.97
2023-05-19T06:17:56.847Z,98749.16
2023-05-19T06:20:23.955Z,98757.19
2023-05-19T06:22:52.637Z,98755.19
2023-05-19T06:25:21.417Z,98764.06
2023-05-19T06:27:48.353Z,98755.31
2023-05-19T06:30:16.436Z,98760.84
2023-05-19T06:33:04.084Z,98754.41
2023-05-19T06:35:31.691Z,98760.94
2023-05-19T06:37:58.759Z,98760.38
2023-05-19T06:40:25.618Z,98755.84
2023-05-19T06:42:53.778Z,98757.50
2023-05-19T06:45:52.842Z,98751.13
2023-05-19T06:48:19.849Z,98756.00
2023-05-19T06:50:47.849Z,98762.81
2023-05-19T06:53:17.330Z,98757.69
2023-05-19T06:55:57.427Z,98771.09
2023-05-19T06:58:27.892Z,98768.84
2023-05-19T07:00:56.456Z,98773.91
2023-05-19T07:03:27.650Z,98773.25
2023-05-19T07:05:55.582Z,98778.03
2023-05-19T07:08:23.060Z,98781.47
2023-05-19T07:10:49.940Z,98774.50
2023-05-19T07:13:17.796Z,98771.72
2023-05-19T07:15:45.140Z,98773.88
2023-05-19T07:18:14.051Z,98768.19
2023-05-19T07:20:41.821Z,98773.16
2023-05-19T07:23:08.746Z,98776.09
2023-05-19T07:25:35.973Z,98775.72
2023-05-19T07:28:02.856Z,98782.66
2023-05-19T07:30:30.075Z,98778.78
2023-05-19T07:32:57.318Z,98784.44
2023-05-19T07:35:24.642Z,98785.00
2023-05-19T07:37:52.459Z,98777.41
2023-05-19T07:40:19.481Z,98773.84
2023-05-19T07:42:46.408Z,98773.97
2023-05-19T07:45:13.272Z,98769.44
2023-05-19T07:47:40.075Z,98772.66
2023-05-19T07:50:07.668Z,98761.22
2023-05-19T07:52:34.447Z,98767.41
2023-05-19T07:55:01.327Z,98771.13
2023-05-19T07:57:28.059Z,98765.03
2023-05-19T07:59:54.927Z,98761.16
2023-05-19T08:02:21.824Z,98765.88
2023-05-19T08:04:49.640Z,98762.59
2023-05-19T08:07:16.796Z,98771.00
2023-05-19T08:09:43.653Z,98767.94
2023-05-19T08:12:10.530Z,98752.44
2023-05-19T08:14:37.499Z,98760.34
2023-05-19T08:17:08.471Z,98761.13
2023-05-19T08:19:35.980Z,98746.38
2023-05-19T08:22:08.507Z,98748.13
2023-05-19T08:24:44.312Z,98750.28
2023-05-19T08:27:12.575Z,98746.91
2023-05-19T08:29:39.953Z,98748.72
2023-05-19T08:32:07.337Z,98739.00
2023-05-19T08:34:34.386Z,98750.91
2023-05-19T08:37:01.870Z,98746.03
2023-05-19T08:39:30.496Z,98738.84
2023-05-19T08:41:59.460Z,98742.72
2023-05-19T08:44:42.182Z,98732.28
2023-05-19T08:47:16.081Z,98739.03
2023-05-19T08:49:48.159Z,98742.59
2023-05-19T08:52:52.553Z,98734.75
2023-05-19T08:55:46.362Z,98731.53
2023-05-19T08:58:20.858Z,98730.13
2023-05-19T09:00:48.122Z,98724.41
2023-05-19T09:03:23.227Z,98726.31
2023-05-19T09:05:51.439Z,98727.16
2023-05-19T09:08:18.511Z,98721.69
2023-05-19T09:10:45.617Z,98724.03
2023-05-19T09:13:12.541Z,98721.38
2023-05-19T09:15:41.368Z,98723.66
2023-05-19T09:18:10.549Z,98716.72
2023-05-19T09:20:39.664Z,98712.88
2023-05-19T09:23:06.492Z,98715.00
2023-05-19T09:25:34.075Z,98716.53
2023-05-19T09:28:01.486Z,98705.28
2023-05-19T09:30:28.314Z,98705.41
2023-05-19T09:32:55.156Z,98701.66
2023-05-19T09:35:22.144Z,98708.50
2023-05-19T09:37:48.938Z,98703.31
2023-05-19T09:40:16.195Z,98706.22
2023-05-19T09:42:44.413Z,98704.81
2023-05-19T09:45:12.087Z,98699.03
2023-05-19T09:47:42.009Z,98703.03
2023-05-19T09:50:14.616Z,98693.06
2023-05-19T09:52:45.764Z,98695.59
2023-05-19T09:55:14.589Z,98698.56
2023-05-19T09:57:42.058Z,98697.84
2023-05-19T10:00:13.959Z,98692.34
2023-05-19T10:02:44.308Z,98692.75
2023-05-19T10:05:18.925Z,98697.44
2023-05-19T10:07:55.785Z,98691.78
2023-05-19T10:10:23.717Z,98687.69
2023-05-19T10:12:50.981Z,98702.13
2023-05-19T10:15:22.207Z,98693.34
2023-05-19T10:17:59.683Z,98684.00
2023-05-19T10:20:31.927Z,98689.78
2023-05-19T10:23:00.582Z,98688.16
2023-05-19T10:25:34.547Z,98681.50
2023-05-19T10:28:10.881Z,98679.13
2023-05-19T10:30:41.822Z,98673.16
2023-05-19T10:33:16.997Z,98674.41
2023-05-19T10:35:54.322Z,98681.63
2023-05-19T10:38:45.698Z,98673.78
2023-05-19T10:41:27.020Z,98678.16
2023-05-19T10:44:21.771Z,98680.38
2023-05-19T10:46:49.432Z,98666.09
2023-05-19T10:49:26.817Z,98660.34
2023-05-19T10:51:59.531Z,98675.19
2023-05-19T10:54:41.265Z,98668.06
2023-05-19T10:57:08.752Z,98669.75
2023-05-19T10:59:40.035Z,98671.63
2023-05-19T11:02:08.691Z,98665.06
2023-05-19T11:04:50.356Z,98670.38
2023-05-19T11:07:20.550Z,98667.66
2023-05-19T11:09:55.404Z,98664.75
2023-05-19T11:12:25.379Z,98666.38
2023-05-19T11:14:53.974Z,98662.88
2023-05-19T11:17:22.378Z,98667.00
2023-05-19T11:19:54.829Z,98664.28
2023-05-19T11:22:27.388Z,98671.41
2023-05-19T11:24:57.856Z,98660.38
2023-05-19T11:27:28.449Z,98660.09
2023-05-19T11:29:57.380Z,98651.59
2023-05-19T11:32:27.614Z,98659.91
2023-05-19T11:34:59.262Z,98650.22
2023-05-19T11:37:32.582Z,98658.91
2023-05-19T11:40:02.767Z,98645.56
2023-05-19T11:42:31.540Z,98644.84
2023-05-19T11:44:58.531Z,98640.47
2023-05-19T11:47:25.996Z,98644.72
2023-05-19T11:49:55.061Z,98644.72
2023-05-19T11:52:23.464Z,98646.63
2023-05-19T11:54:51.395Z,98640.38
2023-05-19T11:57:19.289Z,98645.94
2023-05-19T11:59:48.344Z,98650.25
2023-05-19T12:02:32.880Z,98652.16
2023-05-19T12:05:00.588Z,98655.97
2023-05-19T12:07:27.770Z,98640.97
2023-05-19T12:10:01.988Z,98647.66
2023-05-19T12:12:32.816Z,98652.53
2023-05-19T12:15:04.400Z,98648.31
2023-05-19T12:17:36.208Z,98650.78
2023-05-19T12:20:05.773Z,98653.19
2023-05-19T12:22:32.821Z,98652.53
2023-05-19T12:25:09.236Z,98652.34
2023-05-19T12:27:42.100Z,98645.38
2023-05-19T12:30:13.922Z,98646.25
2023-05-19T12:32:53.548Z,98641.53
2023-05-19T12:35:20.708Z,98645.38
2023-05-19T12:37:55.548Z,98648.25
2023-05-19T12:40:23.521Z,98636.13
2023-05-19T12:42:55.947Z,98640.72
2023-05-19T12:45:25.941Z,98640.75
2023-05-19T12:47:53.352Z,98630.41
2023-05-19T12:50:20.622Z,98637.47
2023-05-19T12:52:51.145Z,98640.59
2023-05-19T12:55:29.684Z,98640.97
2023-05-19T12:58:06.263Z,98633.25
2023-05-19T13:00:36.106Z,98641.84
2023-05-19T13:03:08.792Z,98640.38
2023-05-19T13:05:51.278Z,98636.69
2023-05-19T13:08:24.889Z,98632.94
2023-05-19T13:10:52.234Z,98636.50
2023-05-19T13:13:27.512Z,98630.78
2023-05-19T13:16:01.222Z,98631.91
2023-05-19T13:18:35.185Z,98634.38
2023-05-19T13:21:05.473Z,98627.44
2023-05-19T13:23:32.783Z,98632.13
2023-05-19T13:26:00.498Z,98638.19
2023-05-19T13:28:27.769Z,98636.31
2023-05-19T13:30:55.524Z,98632.47
2023-05-19T13:33:23.043Z,98635.66
2023-05-19T13:35:52.760Z,98632.00
2023-05-19T13:38:19.807Z,98619.94
2023-05-19T13:40:46.812Z,98621.41
2023-05-19T13:43:16.586Z,98631.13
2023-05-19T13:45:53.373Z,98630.47
2023-05-19T13:48:20.772Z,98622.41
2023-05-19T13:50:47.763Z,98615.16
2023-05-19T13:53:14.953Z,98617.75
2023-05-19T13:55:42.035Z,98621.63
2023-05-19T13:58:11.335Z,98615.63
2023-05-19T14:00:38.511Z,98617.22
2023-05-19T14:03:07.415Z,98620.84
2023-05-19T14:05:40.282Z,98613.16
2023-05-19T14:08:11.597Z,98620.72
2023-05-19T14:10:42.460Z,98618.00
2023-05-19T14:13:31.503Z,98625.13
2023-05-19T14:15:58.673Z,98626.09
2023-05-19T14:18:28.989Z,98624.44
2023-05-19T14:20:56.917Z,98623.66
2023-05-19T14:23:23.971Z,98619.47
2023-05-19T14:25:56.676Z,98616.13
2023-05-19T14:28:23.765Z,98618.97
2023-05-19T14:30:51.941Z,98621.69
2023-05-19T14:33:19.610Z,98608.13
2023-05-19T14:35:53.504Z,98618.00
2023-05-19T14:38:29.375Z,98621.00
2023-05-19T14:41:00.182Z,98620.66
2023-05-19T14:43:29.325Z,98620.72
2023-05-19T14:46:00.651Z,98612.88
2023-05-19T14:48:31.008Z,98618.09
2023-05-19T14:51:04.425Z,98612.97
2023-05-19T14:53:45.437Z,98619.13
2023-05-19T14:56:21.270Z,98622.34
2023-05-19T14:59:00.341Z,98616.50
2023-05-19T15:01:28.369Z,98619.19
2023-05-19T15:04:00.741Z,98614.44
2023-05-19T15:06:28.051Z,98622.94
2023-05-19T15:08:55.587Z,98620.03
2023-05-19T15:11:35.144Z,98618.00
2023-05-19T15:14:05.690Z,98618.44
2023-05-19T15:16:43.575Z,98618.66
2023-05-19T15:19:14.843Z,98620.63
2023-05-19T15:21:42.643Z,98615.69
2023-05-19T15:24:09.649Z,98613.97
2023-05-19T15:26:36.949Z,98612.25
2023-05-19T15:29:04.322Z,98623.81
2023-05-19T15:31:35.726Z,98623.53
2023-05-19T15:34:05.169Z,98622.31
2023-05-19T15:36:44.372Z,98615.09
2023-05-19T15:39:17.030Z,98617.53
2023-05-19T15:41:44.716Z,98611.41
2023-05-19T15:44:14.421Z,98604.69
2023-05-19T15:46:42.675Z,98608.69
2023-05-19T15:49:09.608Z,98606.84
2023-05-19T15:51:39.788Z,98607.88
2023-05-19T15:54:07.206Z,98603.75
2023-05-19T15:56:34.694Z,98612.47
2023-05-19T15:59:01.827Z,98610.63
2023-05-19T16:01:29.460Z,98598.63
2023-05-19T16:03:56.640Z,98607.72
2023-05-19T16:06:24.835Z,98607.59
2023-05-19T16:08:52.463Z,98599.88
2023-05-19T16:11:20.677Z,98611.50
2023-05-19T16:13:47.733Z,98600.53
2023-05-19T16:16:18.351Z,98607.47
2023-05-19T16:18:47.628Z,98609.75
2023-05-19T16:21:14.760Z,98612.25
2023-05-19T16:23:41.834Z,98612.00
2023-05-19T16:26:09.006Z,98615.72
2023-05-19T16:28:35.990Z,98611.56
2023-05-19T16:31:02.776Z,98610.13
2023-05-19T16:33:30.167Z,98612.53
2023-05-19T16:35:58.790Z,98606.09
2023-05-19T16:38:26.737Z,98609.88
2023-05-19T16:40:53.913Z,98607.03
2023-05-19T16:43:20.758Z,98611.59
2023-05-19T16:45:47.717Z,98608.78
2023-05-19T16:48:14.653Z,98609.03
2023-05-19T16:50:41.526Z,98614.63
2023-05-19T16:53:08.449Z,98617.44
2023-05-19T16:55:38.710Z,98603.03
2023-05-19T16:58:06.930Z,98608.91
2023-05-19T17:00:34.148Z,98610.97
2023-05-19T17:03:01.270Z,98611.84
2023-05-19T17:05:28.208Z,98609.97
2023-05-19T17:07:55.108Z,98605.75
2023-05-19T17:10:31.526Z,98610.78
2023-05-19T17:12:58.949Z,98605.44
2023-05-19T17:15:26.370Z,98602.56
2023-05-19T17:17:54.015Z,98614.66
2023-05-19T17:20:22.523Z,98610.25
2023-05-19T17:22:55.642Z,98611.47
2023-05-19T17:25:23.639Z,98613.50
2023-05-19T17:27:52.799Z,98619.22
2023-05-19T17:30:19.891Z,98615.94
2023-05-19T17:32:47.718Z,98611.91
2023-05-19T17:35:14.670Z,98619.47
2023-05-19T17:37:42.561Z,98630.22
2023-05-19T17:40:12.301Z,98628.03
2023-05-19T17:42:39.382Z,98621.44
2023-05-19T17:45:07.704Z,98617.88
2023-05-19T17:47:38.600Z,98620.22
2023-05-19T17:50:07.222Z,98622.72
2023-05-19T17:52:34.782Z,98625.25
2023-05-19T17:55:02.467Z,98625.25
2023-05-19T17:57:33.784Z,98633.16
2023-05-19T18:00:04.147Z,98623.00
2023-05-19T18:02:33.703Z,98624.75
2023-05-19T18:05:03.836Z,98628.56
2023-05-19T18:07:33.018Z,98625.19
2023-05-19T18:10:01.738Z,98613.19
2023-05-19T18:12:28.649Z,98618.53
2023-05-19T18:14:55.464Z,98617.25
2023-05-19T18:17:23.590Z,98620.13
2023-05-19T18:19:52.298Z,98615.56
2023-05-19T18:22:19.697Z,98618.47
2023-05-19T18:24:47.484Z,98620.25
2023-05-19T18:27:14.381Z,98612.69
2023-05-19T18:29:42.306Z,98623.22
2023-05-19T18:32:09.620Z,98629.09
2023-05-19T18:34:36.493Z,98635.56
2023-05-19T18:37:03.553Z,98622.84
2023-05-19T18:39:30.482Z,98632.09
2023-05-19T18:41:57.746Z,98637.22
2023-05-19T18:44:26.014Z,98634.81
2023-05-19T18:46:53.673Z,98642.59
2023-05-19T18:49:21.163Z,98641.59
2023-05-19T18:51:51.676Z,98639.19
2023-05-19T18:54:22.742Z,98642.09
2023-05-19T18:56:51.271Z,98638.59
2023-05-19T18:59:18.332Z,98638.25
2023-05-19T19:01:46.148Z,98637.50
2023-05-19T19:04:14.843Z,98630.63
2023-05-19T19:06:43.958Z,98642.16
2023-05-19T19:09:12.982Z,98646.97
2023-05-19T19:11:40.550Z,98642.63
2023-05-19T19:14:07.702Z,98643.00
2023-05-19T19:16:34.725Z,98647.06
2023-05-19T19:19:01.743Z,98645.59
2023-05-19T19:21:29.900Z,98649.88
2023-05-19T19:23:58.042Z,98660.38
2023-05-19T19:26:28.834Z,98660.31
2023-05-19T19:28:56.502Z,98668.34
2023-05-19T19:31:26.122Z,98665.44
2023-05-19T19:33:53.511Z,98659.69
2023-05-19T19:36:22.889Z,98666.13
2023-05-19T19:38:50.204Z,98667.59
2023-05-19T19:41:17.145Z,98665.38
2023-05-19T19:43:44.232Z,98668.03
2023-05-19T19:46:11.365Z,98667.88
2023-05-19T19:48:40.450Z,98667.72
2023-05-19T19:51:08.071Z,98672.00
2023-05-19T19:53:35.068Z,98673.69
2023-05-19T19:56:03.827Z,98667.41
2023-05-19T19:58:33.988Z,98668.53
2023-05-19T20:01:04.350Z,98666.34
2023-05-19T20:03:34.595Z,98663.28
2023-05-19T20:06:03.960Z,98663.66
2023-05-19T20:08:31.543Z,98660.38
2023-05-19T20:11:03.136Z,98662.72
2023-05-19T20:13:32.806Z,98659.34
2023-05-19T20:16:00.272Z,98662.28
2023-05-19T20:18:34.738Z,98665.50
2023-05-19T20:21:02.899Z,98671.44
2023-05-19T20:23:29.720Z,98668.84
2023-05-19T20:26:10.839Z,98669.47
2023-05-19T20:28:38.674Z,98669.78
2023-05-19T20:31:06.593Z,98671.69
2023-05-19T20:33:33.699Z,98676.53
2023-05-19T20:36:02.362Z,98672.44
2023-05-19T20:38:29.556Z,98672.19
2023-05-19T20:40:56.761Z,98674.81
2023-05-19T20:43:23.762Z,98668.38
2023-05-19T20:45:51.514Z,98663.97
2023-05-19T20:48:20.174Z,98672.13
2023-05-19T20:50:47.046Z,98664.97
2023-05-19T20:53:13.999Z,98664.16
2023-05-19T20:55:41.318Z,98674.97
2023-05-19T20:58:08.296Z,98670.34
2023-05-19T21:00:35.644Z,98666.28
2023-05-19T21:03:07.577Z,98661.09
2023-05-19T21:05:35.775Z,98664.44
2023-05-19T21:08:03.534Z,98666.72
2023-05-19T21:10:30.526Z,98659.13
2023-05-19T21:12:59.847Z,98670.34
2023-05-19T21:15:27.294Z,98665.41
2023-05-19T21:17:55.996Z,98666.09
2023-05-19T21:20:24.028Z,98658.78
2023-05-19T21:22:52.908Z,98654.16
2023-05-19T21:25:20.056Z,98656.97
2023-05-19T21:27:47.530Z,98663.00
2023-05-19T21:30:14.714Z,98661.88
2023-05-19T21:32:44.035Z,98672.38
2023-05-19T21:35:13.054Z,98661.75
2023-05-19T21:37:43.300Z,98664.50
2023-05-19T21:40:10.859Z,98668.84
2023-05-19T21:42:38.101Z,98675.72
2023-05-19T21:45:05.639Z,98678.75
2023-05-19T21:47:33.266Z,98683.34
2023-05-19T21:50:04.287Z,98690.34
2023-05-19T21:52:32.244Z,98686.72
2023-05-19T21:54:59.334Z,98684.25
2023-05-19T21:57:26.552Z,98689.66
2023-05-19T21:59:53.624Z,98692.47
2023-05-19T22:02:21.107Z,98688.94
2023-05-19T22:04:48.097Z,98694.00
2023-05-19T22:07:14.876Z,98695.00
2023-05-19T22:09:41.685Z,98682.97
2023-05-19T22:12:12.786Z,98697.38
2023-05-19T22:14:40.043Z,98687.97
2023-05-19T22:17:06.805Z,98693.84
2023-05-19T22:19:33.698Z,98698.16
2023-05-19T22:22:12.666Z,98691.22
2023-05-19T22:24:41.091Z,98687.56
2023-05-19T22:27:08.376Z,98685.00
2023-05-19T22:29:38.637Z,98678.88
2023-05-19T22:32:11.928Z,98676.03
2023-05-19T22:34:39.540Z,98668.94
2023-05-19T22:37:06.834Z,98673.81
2023-05-19T22:39:34.688Z,98670.25
2023-05-19T22:42:01.466Z,98664.34
2023-05-19T22:44:28.409Z,98666.88
2023-05-19T22:46:55.201Z,98658.72
2023-05-19T22:49:26.500Z,98653.44
2023-05-19T22:51:53.425Z,98647.38
2023-05-19T22:54:20.310Z,98647.38
2023-05-19T22:56:49.057Z,98640.94
2023-05-19T22:59:18.027Z,98641.41
2023-05-19T23:01:46.736Z,98638.53
2023-05-19T23:04:14.053Z,98640.69
2023-05-19T23:06:41.658Z,98654.41
2023-05-19T23:09:08.382Z,98652.84
2023-05-19T23:11:36.025Z,98661.34
2023-05-19T23:14:02.963Z,98658.81
2023-05-19T23:16:29.824Z,98654.16
2023-05-19T23:18:56.781Z,98650.47
2023-05-19T23:21:23.761Z,98655.00
2023-05-19T23:23:50.645Z,98653.31
2023-05-19T23:26:17.748Z,98648.84
2023-05-19T23:28:44.678Z,98642.97
2023-05-19T23:31:11.740Z,98644.22
2023-05-19T23:33:38.979Z,98645.44
2023-05-19T23:36:07.836Z,98636.94
2023-05-19T23:38:35.288Z,98635.09
2023-05-19T23:41:02.615Z,98635.34
2023-05-19T23:43:29.847Z,98637.44
2023-05-19T23:45:56.971Z,98633.47
2023-05-19T23:48:24.171Z,98641.22
2023-05-19T23:50:50.874Z,98636.78
2023-05-19T23:53:17.842Z,98640.00
2023-05-19T23:55:45.202Z,98634.31
2023-05-19T23:58:12.018Z,98632.31
